sensor_id;sensor_type;location;lat;lon;timestamp;temperature;humidity
15113;DHT22;7657;50.140;7.076;2023-03-05T00:01:43;4.40;99.90
15113;DHT22;7657;50.140;7.076;2023-03-05T00:04:12;4.40;99.90
15113;DHT22;7657;50.140;7.076;2023-03-05T00:06:39;4.50;99.90
15113;DHT22;7657;50.140;7.076;2023-03-05T00:09:06;4.50;99.90
15113;DHT22;7657;50.140;7.076;2023-03-05T00:11:33;4.60;99.90
15113;DHT22;7657;50.140;7.076;2023-03-05T00:14:01;4.50;99.90
15113;DHT22;7657;50.140;7.076;2023-03-05T00:16:31;4.50;99.90
15113;DHT22;7657;50.140;7.076;2023-03-05T00:18:59;4.60;99.90
15113;DHT22;7657;50.140;7.076;2023-03-05T00:21:28;4.70;99.90
15113;DHT22;7657;50.140;7.076;2023-03-05T00:23:55;4.70;99.90
15113;DHT22;7657;50.140;7.076;2023-03-05T00:26:24;4.80;99.90
15113;DHT22;7657;50.140;7.076;2023-03-05T00:28:51;4.80;99.90
15113;DHT22;7657;50.140;7.076;2023-03-05T00:31:19;4.80;99.90
15113;DHT22;7657;50.140;7.076;2023-03-05T00:33:51;4.80;99.90
15113;DHT22;7657;50.140;7.076;2023-03-05T00:36:18;4.70;99.90
15113;DHT22;7657;50.140;7.076;2023-03-05T00:38:45;4.70;99.90
15113;DHT22;7657;50.140;7.076;2023-03-05T00:41:12;4.60;99.90
15113;DHT22;7657;50.140;7.076;2023-03-05T00:43:39;4.70;99.90
15113;DHT22;7657;50.140;7.076;2023-03-05T00:46:05;4.70;99.90
15113;DHT22;7657;50.140;7.076;2023-03-05T00:48:32;4.80;99.90
15113;DHT22;7657;50.140;7.076;2023-03-05T00:51:01;4.50;99.90
15113;DHT22;7657;50.140;7.076;2023-03-05T00:53:28;4.50;99.90
15113;DHT22;7657;50.140;7.076;2023-03-05T00:55:54;4.50;99.90
15113;DHT22;7657;50.140;7.076;2023-03-05T00:58:21;4.50;99.90
15113;DHT22;7657;50.140;7.076;2023-03-05T01:00:48;4.50;99.90
15113;DHT22;7657;50.140;7.076;2023-03-05T01:03:15;4.50;99.90
15113;DHT22;7657;50.140;7.076;2023-03-05T01:05:42;4.50;99.90
15113;DHT22;7657;50.140;7.076;2023-03-05T01:08:10;4.60;99.90
15113;DHT22;7657;50.140;7.076;2023-03-05T01:10:38;4.60;99.90
15113;DHT22;7657;50.140;7.076;2023-03-05T01:13:05;4.60;99.90
15113;DHT22;7657;50.140;7.076;2023-03-05T01:15:31;4.70;99.90
15113;DHT22;7657;50.140;7.076;2023-03-05T01:17:58;4.70;99.90
15113;DHT22;7657;50.140;7.076;2023-03-05T01:20:25;4.60;99.90
15113;DHT22;7657;50.140;7.076;2023-03-05T01:22:52;4.60;99.90
15113;DHT22;7657;50.140;7.076;2023-03-05T01:25:21;4.60;99.90
15113;DHT22;7657;50.140;7.076;2023-03-05T01:27:47;4.60;99.90
15113;DHT22;7657;50.140;7.076;2023-03-05T01:30:15;4.60;99.90
15113;DHT22;7657;50.140;7.076;2023-03-05T01:32:42;4.70;99.90
15113;DHT22;7657;50.140;7.076;2023-03-05T01:35:14;4.60;99.90
15113;DHT22;7657;50.140;7.076;2023-03-05T01:37:42;4.70;99.90
15113;DHT22;7657;50.140;7.076;2023-03-05T01:40:10;4.70;99.90
15113;DHT22;7657;50.140;7.076;2023-03-05T01:42:39;4.60;99.90
15113;DHT22;7657;50.140;7.076;2023-03-05T01:45:08;4.60;99.90
15113;DHT22;7657;50.140;7.076;2023-03-05T01:47:36;4.50;99.90
15113;DHT22;7657;50.140;7.076;2023-03-05T01:50:04;4.50;99.90
15113;DHT22;7657;50.140;7.076;2023-03-05T01:52:32;4.50;99.90
15113;DHT22;7657;50.140;7.076;2023-03-05T01:55:03;4.50;99.90
15113;DHT22;7657;50.140;7.076;2023-03-05T01:57:35;4.50;99.90
15113;DHT22;7657;50.140;7.076;2023-03-05T02:00:07;4.60;99.90
15113;DHT22;7657;50.140;7.076;2023-03-05T02:02:35;4.60;99.90
15113;DHT22;7657;50.140;7.076;2023-03-05T02:05:06;4.60;99.90
15113;DHT22;7657;50.140;7.076;2023-03-05T02:07:34;4.60;99.90
15113;DHT22;7657;50.140;7.076;2023-03-05T02:10:14;4.60;99.90
15113;DHT22;7657;50.140;7.076;2023-03-05T02:12:41;4.40;99.90
15113;DHT22;7657;50.140;7.076;2023-03-05T02:15:11;4.40;99.90
15113;DHT22;7657;50.140;7.076;2023-03-05T02:17:37;4.50;99.90
15113;DHT22;7657;50.140;7.076;2023-03-05T02:20:07;4.50;99.90
15113;DHT22;7657;50.140;7.076;2023-03-05T02:22:35;4.50;99.90
15113;DHT22;7657;50.140;7.076;2023-03-05T02:25:12;4.50;99.90
15113;DHT22;7657;50.140;7.076;2023-03-05T02:27:40;4.50;99.90
15113;DHT22;7657;50.140;7.076;2023-03-05T02:30:09;4.50;99.90
15113;DHT22;7657;50.140;7.076;2023-03-05T02:32:37;4.50;99.90
15113;DHT22;7657;50.140;7.076;2023-03-05T02:35:05;4.50;99.90
15113;DHT22;7657;50.140;7.076;2023-03-05T02:37:32;4.50;99.90
15113;DHT22;7657;50.140;7.076;2023-03-05T02:40:00;4.50;99.90
15113;DHT22;7657;50.140;7.076;2023-03-05T02:42:27;4.50;99.90
15113;DHT22;7657;50.140;7.076;2023-03-05T02:44:58;4.40;99.90
15113;DHT22;7657;50.140;7.076;2023-03-05T02:47:25;4.30;99.90
15113;DHT22;7657;50.140;7.076;2023-03-05T02:49:52;4.30;99.90
15113;DHT22;7657;50.140;7.076;2023-03-05T02:52:19;4.30;99.90
15113;DHT22;7657;50.140;7.076;2023-03-05T02:54:47;4.30;99.90
15113;DHT22;7657;50.140;7.076;2023-03-05T02:57:16;4.30;99.90
15113;DHT22;7657;50.140;7.076;2023-03-05T02:59:43;4.30;99.90
15113;DHT22;7657;50.140;7.076;2023-03-05T03:02:11;4.20;99.90
15113;DHT22;7657;50.140;7.076;2023-03-05T03:04:38;4.30;99.90
15113;DHT22;7657;50.140;7.076;2023-03-05T03:07:05;4.40;99.90
15113;DHT22;7657;50.140;7.076;2023-03-05T03:09:32;4.40;99.90
15113;DHT22;7657;50.140;7.076;2023-03-05T03:12:00;4.40;99.90
15113;DHT22;7657;50.140;7.076;2023-03-05T03:14:30;4.50;99.90
15113;DHT22;7657;50.140;7.076;2023-03-05T03:16:57;4.50;99.90
15113;DHT22;7657;50.140;7.076;2023-03-05T03:19:24;4.50;99.90
15113;DHT22;7657;50.140;7.076;2023-03-05T03:21:51;4.40;99.90
15113;DHT22;7657;50.140;7.076;2023-03-05T03:24:19;4.50;99.90
15113;DHT22;7657;50.140;7.076;2023-03-05T03:26:46;4.50;99.90
15113;DHT22;7657;50.140;7.076;2023-03-05T03:29:14;4.50;99.90
15113;DHT22;7657;50.140;7.076;2023-03-05T03:31:42;4.50;99.90
15113;DHT22;7657;50.140;7.076;2023-03-05T03:34:10;4.50;99.90
15113;DHT22;7657;50.140;7.076;2023-03-05T03:36:37;4.50;99.90
15113;DHT22;7657;50.140;7.076;2023-03-05T03:39:04;4.50;99.90
15113;DHT22;7657;50.140;7.076;2023-03-05T03:41:34;4.40;99.90
15113;DHT22;7657;50.140;7.076;2023-03-05T03:44:01;4.40;99.90
15113;DHT22;7657;50.140;7.076;2023-03-05T03:46:32;4.40;99.90
15113;DHT22;7657;50.140;7.076;2023-03-05T03:49:00;4.30;99.90
15113;DHT22;7657;50.140;7.076;2023-03-05T03:51:27;4.20;99.90
15113;DHT22;7657;50.140;7.076;2023-03-05T03:53:54;4.20;99.90
15113;DHT22;7657;50.140;7.076;2023-03-05T03:56:21;4.10;99.90
15113;DHT22;7657;50.140;7.076;2023-03-05T03:58:49;4.10;99.90
15113;DHT22;7657;50.140;7.076;2023-03-05T04:01:15;4.10;99.90
15113;DHT22;7657;50.140;7.076;2023-03-05T04:03:42;4.00;99.90
15113;DHT22;7657;50.140;7.076;2023-03-05T04:06:11;4.00;99.90
15113;DHT22;7657;50.140;7.076;2023-03-05T04:08:39;4.00;99.90
15113;DHT22;7657;50.140;7.076;2023-03-05T04:11:06;4.10;99.90
15113;DHT22;7657;50.140;7.076;2023-03-05T04:13:33;4.20;99.90
15113;DHT22;7657;50.140;7.076;2023-03-05T04:16:00;4.30;99.90
15113;DHT22;7657;50.140;7.076;2023-03-05T04:18:27;4.30;99.90
15113;DHT22;7657;50.140;7.076;2023-03-05T04:20:53;4.20;99.90
15113;DHT22;7657;50.140;7.076;2023-03-05T04:23:22;4.00;99.90
15113;DHT22;7657;50.140;7.076;2023-03-05T04:25:49;4.00;99.90
15113;DHT22;7657;50.140;7.076;2023-03-05T04:28:16;4.00;99.90
15113;DHT22;7657;50.140;7.076;2023-03-05T04:30:43;4.10;99.90
15113;DHT22;7657;50.140;7.076;2023-03-05T04:33:10;4.00;99.90
15113;DHT22;7657;50.140;7.076;2023-03-05T04:35:37;4.10;99.90
15113;DHT22;7657;50.140;7.076;2023-03-05T04:38:04;4.00;99.90
15113;DHT22;7657;50.140;7.076;2023-03-05T04:40:32;3.80;99.90
15113;DHT22;7657;50.140;7.076;2023-03-05T04:42:59;3.80;99.90
15113;DHT22;7657;50.140;7.076;2023-03-05T04:45:26;3.90;99.90
15113;DHT22;7657;50.140;7.076;2023-03-05T04:47:53;3.90;99.90
15113;DHT22;7657;50.140;7.076;2023-03-05T04:50:20;3.90;99.90
15113;DHT22;7657;50.140;7.076;2023-03-05T04:52:47;3.90;99.90
15113;DHT22;7657;50.140;7.076;2023-03-05T04:55:15;3.90;99.90
15113;DHT22;7657;50.140;7.076;2023-03-05T04:57:44;3.90;99.90
15113;DHT22;7657;50.140;7.076;2023-03-05T05:00:13;3.90;99.90
15113;DHT22;7657;50.140;7.076;2023-03-05T05:02:41;3.90;99.90
15113;DHT22;7657;50.140;7.076;2023-03-05T05:05:09;4.00;99.90
15113;DHT22;7657;50.140;7.076;2023-03-05T05:07:37;4.00;99.90
15113;DHT22;7657;50.140;7.076;2023-03-05T05:10:05;4.00;99.90
15113;DHT22;7657;50.140;7.076;2023-03-05T05:12:33;3.90;99.90
15113;DHT22;7657;50.140;7.076;2023-03-05T05:15:02;3.90;99.90
15113;DHT22;7657;50.140;7.076;2023-03-05T05:17:29;4.00;99.90
15113;DHT22;7657;50.140;7.076;2023-03-05T05:19:57;4.10;99.90
15113;DHT22;7657;50.140;7.076;2023-03-05T05:22:25;4.10;99.90
15113;DHT22;7657;50.140;7.076;2023-03-05T05:24:52;4.20;99.90
15113;DHT22;7657;50.140;7.076;2023-03-05T05:27:19;4.20;99.90
15113;DHT22;7657;50.140;7.076;2023-03-05T05:29:46;4.40;99.90
15113;DHT22;7657;50.140;7.076;2023-03-05T05:32:16;4.50;99.90
15113;DHT22;7657;50.140;7.076;2023-03-05T05:34:43;4.40;99.90
15113;DHT22;7657;50.140;7.076;2023-03-05T05:37:10;4.40;99.90
15113;DHT22;7657;50.140;7.076;2023-03-05T05:39:37;4.50;99.90
15113;DHT22;7657;50.140;7.076;2023-03-05T05:42:05;4.60;99.90
15113;DHT22;7657;50.140;7.076;2023-03-05T05:44:32;4.50;99.90
15113;DHT22;7657;50.140;7.076;2023-03-05T05:46:59;4.50;99.90
15113;DHT22;7657;50.140;7.076;2023-03-05T05:49:27;4.60;99.90
15113;DHT22;7657;50.140;7.076;2023-03-05T05:51:54;4.60;99.90
15113;DHT22;7657;50.140;7.076;2023-03-05T05:54:22;4.70;99.90
15113;DHT22;7657;50.140;7.076;2023-03-05T05:56:49;4.70;99.90
15113;DHT22;7657;50.140;7.076;2023-03-05T05:59:16;4.70;99.90
15113;DHT22;7657;50.140;7.076;2023-03-05T06:01:43;4.50;99.90
15113;DHT22;7657;50.140;7.076;2023-03-05T06:04:10;4.60;99.90
15113;DHT22;7657;50.140;7.076;2023-03-05T06:06:38;4.60;99.90
15113;DHT22;7657;50.140;7.076;2023-03-05T06:09:05;4.70;99.90
15113;DHT22;7657;50.140;7.076;2023-03-05T06:11:32;4.60;99.90
15113;DHT22;7657;50.140;7.076;2023-03-05T06:13:59;4.60;99.90
15113;DHT22;7657;50.140;7.076;2023-03-05T06:16:27;4.60;99.90
15113;DHT22;7657;50.140;7.076;2023-03-05T06:18:54;4.60;99.90
15113;DHT22;7657;50.140;7.076;2023-03-05T06:21:22;4.60;99.90
15113;DHT22;7657;50.140;7.076;2023-03-05T06:23:51;4.70;99.90
15113;DHT22;7657;50.140;7.076;2023-03-05T06:26:19;4.70;99.90
15113;DHT22;7657;50.140;7.076;2023-03-05T06:28:47;4.50;99.90
15113;DHT22;7657;50.140;7.076;2023-03-05T06:31:15;4.50;99.90
15113;DHT22;7657;50.140;7.076;2023-03-05T06:33:43;4.40;99.90
15113;DHT22;7657;50.140;7.076;2023-03-05T06:36:11;4.50;99.90
15113;DHT22;7657;50.140;7.076;2023-03-05T06:38:39;4.60;99.90
15113;DHT22;7657;50.140;7.076;2023-03-05T06:41:09;4.60;99.90
15113;DHT22;7657;50.140;7.076;2023-03-05T06:43:39;4.70;99.90
15113;DHT22;7657;50.140;7.076;2023-03-05T06:46:07;4.70;99.90
15113;DHT22;7657;50.140;7.076;2023-03-05T06:48:36;4.60;99.90
15113;DHT22;7657;50.140;7.076;2023-03-05T06:51:04;4.70;99.90
15113;DHT22;7657;50.140;7.076;2023-03-05T06:53:31;4.70;99.90
15113;DHT22;7657;50.140;7.076;2023-03-05T06:56:00;4.60;99.90
15113;DHT22;7657;50.140;7.076;2023-03-05T06:58:28;4.60;99.90
15113;DHT22;7657;50.140;7.076;2023-03-05T07:00:55;4.60;99.90
15113;DHT22;7657;50.140;7.076;2023-03-05T07:03:22;4.50;99.90
15113;DHT22;7657;50.140;7.076;2023-03-05T07:05:49;4.50;99.90
15113;DHT22;7657;50.140;7.076;2023-03-05T07:08:16;4.60;99.90
15113;DHT22;7657;50.140;7.076;2023-03-05T07:10:43;4.60;99.90
15113;DHT22;7657;50.140;7.076;2023-03-05T07:13:10;4.50;99.90
15113;DHT22;7657;50.140;7.076;2023-03-05T07:15:39;4.50;99.90
15113;DHT22;7657;50.140;7.076;2023-03-05T07:18:06;4.40;99.90
15113;DHT22;7657;50.140;7.076;2023-03-05T07:20:34;4.40;99.90
15113;DHT22;7657;50.140;7.076;2023-03-05T07:23:01;4.20;99.90
15113;DHT22;7657;50.140;7.076;2023-03-05T07:25:28;4.20;99.90
15113;DHT22;7657;50.140;7.076;2023-03-05T07:27:55;4.30;99.90
15113;DHT22;7657;50.140;7.076;2023-03-05T07:30:23;4.40;99.90
15113;DHT22;7657;50.140;7.076;2023-03-05T07:32:51;4.40;99.90
15113;DHT22;7657;50.140;7.076;2023-03-05T07:35:18;4.50;99.90
15113;DHT22;7657;50.140;7.076;2023-03-05T07:37:45;4.60;99.90
15113;DHT22;7657;50.140;7.076;2023-03-05T07:40:12;4.60;99.90
15113;DHT22;7657;50.140;7.076;2023-03-05T07:42:39;4.50;99.90
15113;DHT22;7657;50.140;7.076;2023-03-05T07:45:07;4.50;99.90
15113;DHT22;7657;50.140;7.076;2023-03-05T07:47:34;4.40;99.90
15113;DHT22;7657;50.140;7.076;2023-03-05T07:50:04;4.30;99.90
15113;DHT22;7657;50.140;7.076;2023-03-05T07:52:31;4.20;99.90
15113;DHT22;7657;50.140;7.076;2023-03-05T07:54:57;4.20;99.90
15113;DHT22;7657;50.140;7.076;2023-03-05T07:57:27;4.10;99.90
15113;DHT22;7657;50.140;7.076;2023-03-05T07:59:54;4.00;99.90
15113;DHT22;7657;50.140;7.076;2023-03-05T08:02:21;4.20;99.90
15113;DHT22;7657;50.140;7.076;2023-03-05T08:04:48;4.30;99.90
15113;DHT22;7657;50.140;7.076;2023-03-05T08:07:16;4.20;99.90
15113;DHT22;7657;50.140;7.076;2023-03-05T08:09:43;4.10;99.90
15113;DHT22;7657;50.140;7.076;2023-03-05T08:12:10;3.90;99.90
15113;DHT22;7657;50.140;7.076;2023-03-05T08:14:36;3.90;99.90
15113;DHT22;7657;50.140;7.076;2023-03-05T08:17:03;3.80;99.90
15113;DHT22;7657;50.140;7.076;2023-03-05T08:19:31;4.00;99.90
15113;DHT22;7657;50.140;7.076;2023-03-05T08:21:58;3.90;99.90
15113;DHT22;7657;50.140;7.076;2023-03-05T08:24:26;3.90;99.90
15113;DHT22;7657;50.140;7.076;2023-03-05T08:26:55;3.80;99.90
15113;DHT22;7657;50.140;7.076;2023-03-05T08:29:23;3.70;99.90
15113;DHT22;7657;50.140;7.076;2023-03-05T08:31:50;3.70;99.90
15113;DHT22;7657;50.140;7.076;2023-03-05T08:34:18;3.60;99.90
15113;DHT22;7657;50.140;7.076;2023-03-05T08:36:45;3.60;99.90
15113;DHT22;7657;50.140;7.076;2023-03-05T08:39:12;3.60;99.90
15113;DHT22;7657;50.140;7.076;2023-03-05T08:41:40;3.50;99.90
15113;DHT22;7657;50.140;7.076;2023-03-05T08:44:07;3.70;99.90
15113;DHT22;7657;50.140;7.076;2023-03-05T08:46:34;3.80;99.90
15113;DHT22;7657;50.140;7.076;2023-03-05T08:49:02;3.80;99.90
15113;DHT22;7657;50.140;7.076;2023-03-05T08:51:29;3.90;99.90
15113;DHT22;7657;50.140;7.076;2023-03-05T08:53:58;3.80;99.90
15113;DHT22;7657;50.140;7.076;2023-03-05T08:56:26;3.70;99.90
15113;DHT22;7657;50.140;7.076;2023-03-05T08:58:57;3.80;99.90
15113;DHT22;7657;50.140;7.076;2023-03-05T09:01:24;3.80;99.90
15113;DHT22;7657;50.140;7.076;2023-03-05T09:03:52;3.70;99.90
15113;DHT22;7657;50.140;7.076;2023-03-05T09:06:19;3.80;99.90
15113;DHT22;7657;50.140;7.076;2023-03-05T09:08:46;3.70;99.90
15113;DHT22;7657;50.140;7.076;2023-03-05T09:11:13;3.80;99.90
15113;DHT22;7657;50.140;7.076;2023-03-05T09:13:40;3.80;99.90
15113;DHT22;7657;50.140;7.076;2023-03-05T09:16:11;3.90;99.90
15113;DHT22;7657;50.140;7.076;2023-03-05T09:18:40;3.90;99.90
15113;DHT22;7657;50.140;7.076;2023-03-05T09:21:09;3.90;99.90
15113;DHT22;7657;50.140;7.076;2023-03-05T09:23:36;4.00;99.90
15113;DHT22;7657;50.140;7.076;2023-03-05T09:26:04;3.90;99.90
15113;DHT22;7657;50.140;7.076;2023-03-05T09:28:31;3.80;99.90
15113;DHT22;7657;50.140;7.076;2023-03-05T09:31:01;3.70;99.90
15113;DHT22;7657;50.140;7.076;2023-03-05T09:33:30;3.80;99.90
15113;DHT22;7657;50.140;7.076;2023-03-05T09:35:58;3.80;99.90
15113;DHT22;7657;50.140;7.076;2023-03-05T09:38:25;3.80;99.90
15113;DHT22;7657;50.140;7.076;2023-03-05T09:40:57;3.80;99.90
15113;DHT22;7657;50.140;7.076;2023-03-05T09:43:37;3.80;99.90
15113;DHT22;7657;50.140;7.076;2023-03-05T09:46:17;3.70;99.90
15113;DHT22;7657;50.140;7.076;2023-03-05T09:48:52;3.80;99.90
15113;DHT22;7657;50.140;7.076;2023-03-05T09:51:24;3.70;99.90
15113;DHT22;7657;50.140;7.076;2023-03-05T09:53:58;3.90;99.90
15113;DHT22;7657;50.140;7.076;2023-03-05T09:56:29;3.90;99.90
15113;DHT22;7657;50.140;7.076;2023-03-05T09:59:00;3.90;99.90
15113;DHT22;7657;50.140;7.076;2023-03-05T10:01:32;3.80;99.90
15113;DHT22;7657;50.140;7.076;2023-03-05T10:04:05;3.90;99.90
15113;DHT22;7657;50.140;7.076;2023-03-05T10:06:36;3.80;99.90
15113;DHT22;7657;50.140;7.076;2023-03-05T10:09:06;3.70;99.90
15113;DHT22;7657;50.140;7.076;2023-03-05T10:11:49;3.70;99.90
15113;DHT22;7657;50.140;7.076;2023-03-05T10:14:24;3.60;99.90
15113;DHT22;7657;50.140;7.076;2023-03-05T10:17:07;3.70;99.90
15113;DHT22;7657;50.140;7.076;2023-03-05T10:19:59;3.80;99.90
15113;DHT22;7657;50.140;7.076;2023-03-05T10:22:32;4.00;99.90
15113;DHT22;7657;50.140;7.076;2023-03-05T10:25:13;4.10;99.90
15113;DHT22;7657;50.140;7.076;2023-03-05T10:27:47;4.30;99.90
15113;DHT22;7657;50.140;7.076;2023-03-05T10:30:32;4.30;99.90
15113;DHT22;7657;50.140;7.076;2023-03-05T10:33:14;4.30;99.90
15113;DHT22;7657;50.140;7.076;2023-03-05T10:36:30;4.40;99.90
15113;DHT22;7657;50.140;7.076;2023-03-05T10:39:36;4.50;99.90
15113;DHT22;7657;50.140;7.076;2023-03-05T10:42:12;4.40;99.90
15113;DHT22;7657;50.140;7.076;2023-03-05T10:44:45;4.50;99.90
15113;DHT22;7657;50.140;7.076;2023-03-05T10:47:18;4.60;99.90
15113;DHT22;7657;50.140;7.076;2023-03-05T10:49:49;4.80;99.90
15113;DHT22;7657;50.140;7.076;2023-03-05T10:52:20;4.80;99.90
15113;DHT22;7657;50.140;7.076;2023-03-05T10:54:48;4.90;99.90
15113;DHT22;7657;50.140;7.076;2023-03-05T10:57:17;4.90;99.90
15113;DHT22;7657;50.140;7.076;2023-03-05T10:59:48;4.80;99.90
15113;DHT22;7657;50.140;7.076;2023-03-05T11:02:16;4.80;99.90
15113;DHT22;7657;50.140;7.076;2023-03-05T11:04:44;5.00;99.90
15113;DHT22;7657;50.140;7.076;2023-03-05T11:07:35;5.20;99.90
15113;DHT22;7657;50.140;7.076;2023-03-05T11:10:15;5.30;99.90
15113;DHT22;7657;50.140;7.076;2023-03-05T11:12:43;5.30;99.90
15113;DHT22;7657;50.140;7.076;2023-03-05T11:15:26;5.40;99.90
15113;DHT22;7657;50.140;7.076;2023-03-05T11:18:05;5.40;99.90
15113;DHT22;7657;50.140;7.076;2023-03-05T11:20:33;5.40;99.90
15113;DHT22;7657;50.140;7.076;2023-03-05T11:23:09;5.70;99.90
15113;DHT22;7657;50.140;7.076;2023-03-05T11:25:54;5.80;99.90
15113;DHT22;7657;50.140;7.076;2023-03-05T11:28:24;6.00;99.90
15113;DHT22;7657;50.140;7.076;2023-03-05T11:30:57;6.10;99.90
15113;DHT22;7657;50.140;7.076;2023-03-05T11:33:24;5.90;99.90
15113;DHT22;7657;50.140;7.076;2023-03-05T11:36:03;5.70;99.90
15113;DHT22;7657;50.140;7.076;2023-03-05T11:38:44;5.70;99.90
15113;DHT22;7657;50.140;7.076;2023-03-05T11:41:11;5.90;99.90
15113;DHT22;7657;50.140;7.076;2023-03-05T11:43:40;6.00;99.90
15113;DHT22;7657;50.140;7.076;2023-03-05T11:46:10;5.90;99.90
15113;DHT22;7657;50.140;7.076;2023-03-05T11:48:39;5.90;99.90
15113;DHT22;7657;50.140;7.076;2023-03-05T11:51:12;5.90;99.90
15113;DHT22;7657;50.140;7.076;2023-03-05T11:53:44;5.90;99.90
15113;DHT22;7657;50.140;7.076;2023-03-05T11:56:18;6.00;99.90
15113;DHT22;7657;50.140;7.076;2023-03-05T11:58:50;5.90;99.90
15113;DHT22;7657;50.140;7.076;2023-03-05T12:01:19;5.90;99.90
15113;DHT22;7657;50.140;7.076;2023-03-05T12:03:47;5.90;99.90
15113;DHT22;7657;50.140;7.076;2023-03-05T12:06:19;6.00;99.90
15113;DHT22;7657;50.140;7.076;2023-03-05T12:08:52;6.00;99.90
15113;DHT22;7657;50.140;7.076;2023-03-05T12:11:24;6.10;99.90
15113;DHT22;7657;50.140;7.076;2023-03-05T12:13:55;6.00;99.90
15113;DHT22;7657;50.140;7.076;2023-03-05T12:16:30;5.90;99.90
15113;DHT22;7657;50.140;7.076;2023-03-05T12:19:24;5.70;99.90
15113;DHT22;7657;50.140;7.076;2023-03-05T12:21:55;5.50;99.90
15113;DHT22;7657;50.140;7.076;2023-03-05T12:24:36;5.50;99.90
15113;DHT22;7657;50.140;7.076;2023-03-05T12:27:12;5.50;99.90
15113;DHT22;7657;50.140;7.076;2023-03-05T12:29:46;5.50;99.90
15113;DHT22;7657;50.140;7.076;2023-03-05T12:35:26;5.80;99.90
15113;DHT22;7657;50.140;7.076;2023-03-05T12:38:00;5.60;99.90
15113;DHT22;7657;50.140;7.076;2023-03-05T12:40:30;5.60;99.90
15113;DHT22;7657;50.140;7.076;2023-03-05T12:42:59;5.60;99.90
15113;DHT22;7657;50.140;7.076;2023-03-05T12:48:42;5.50;99.90
15113;DHT22;7657;50.140;7.076;2023-03-05T12:51:13;5.60;99.90
15113;DHT22;7657;50.140;7.076;2023-03-05T12:53:52;5.50;99.90
15113;DHT22;7657;50.140;7.076;2023-03-05T12:56:21;5.40;99.90
15113;DHT22;7657;50.140;7.076;2023-03-05T12:58:52;5.40;99.90
15113;DHT22;7657;50.140;7.076;2023-03-05T13:01:29;5.30;99.90
15113;DHT22;7657;50.140;7.076;2023-03-05T13:04:00;5.30;99.90
15113;DHT22;7657;50.140;7.076;2023-03-05T13:06:30;5.40;99.90
15113;DHT22;7657;50.140;7.076;2023-03-05T13:08:59;5.50;99.90
15113;DHT22;7657;50.140;7.076;2023-03-05T13:11:30;5.40;99.90
15113;DHT22;7657;50.140;7.076;2023-03-05T13:14:00;5.30;99.90
15113;DHT22;7657;50.140;7.076;2023-03-05T13:16:28;5.40;99.90
15113;DHT22;7657;50.140;7.076;2023-03-05T13:18:58;5.20;99.90
15113;DHT22;7657;50.140;7.076;2023-03-05T13:21:27;5.10;99.90
15113;DHT22;7657;50.140;7.076;2023-03-05T13:23:56;5.20;99.90
15113;DHT22;7657;50.140;7.076;2023-03-05T13:26:25;5.20;99.90
15113;DHT22;7657;50.140;7.076;2023-03-05T13:29:09;5.30;99.90
15113;DHT22;7657;50.140;7.076;2023-03-05T13:31:40;5.30;99.90
15113;DHT22;7657;50.140;7.076;2023-03-05T13:34:13;5.30;99.90
15113;DHT22;7657;50.140;7.076;2023-03-05T13:36:45;5.40;99.90
15113;DHT22;7657;50.140;7.076;2023-03-05T13:39:24;5.40;99.90
15113;DHT22;7657;50.140;7.076;2023-03-05T13:41:58;5.50;99.90
15113;DHT22;7657;50.140;7.076;2023-03-05T13:44:27;5.60;99.90
15113;DHT22;7657;50.140;7.076;2023-03-05T13:47:07;5.60;99.90
15113;DHT22;7657;50.140;7.076;2023-03-05T13:49:34;5.80;99.90
15113;DHT22;7657;50.140;7.076;2023-03-05T13:52:01;5.70;99.90
15113;DHT22;7657;50.140;7.076;2023-03-05T13:54:29;5.50;99.90
15113;DHT22;7657;50.140;7.076;2023-03-05T13:56:57;5.60;99.90
15113;DHT22;7657;50.140;7.076;2023-03-05T13:59:28;5.60;99.90
15113;DHT22;7657;50.140;7.076;2023-03-05T14:01:58;5.70;99.90
15113;DHT22;7657;50.140;7.076;2023-03-05T14:04:27;5.60;99.90
15113;DHT22;7657;50.140;7.076;2023-03-05T14:06:58;5.60;99.90
15113;DHT22;7657;50.140;7.076;2023-03-05T14:09:27;5.60;99.90
15113;DHT22;7657;50.140;7.076;2023-03-05T14:11:59;5.70;99.90
15113;DHT22;7657;50.140;7.076;2023-03-05T14:14:29;5.70;99.90
15113;DHT22;7657;50.140;7.076;2023-03-05T14:17:21;5.90;99.90
15113;DHT22;7657;50.140;7.076;2023-03-05T14:19:48;5.80;99.90
15113;DHT22;7657;50.140;7.076;2023-03-05T14:22:29;5.90;99.90
15113;DHT22;7657;50.140;7.076;2023-03-05T14:24:56;6.00;99.90
15113;DHT22;7657;50.140;7.076;2023-03-05T14:27:23;6.00;99.90
15113;DHT22;7657;50.140;7.076;2023-03-05T14:29:51;6.10;99.90
15113;DHT22;7657;50.140;7.076;2023-03-05T14:32:23;5.90;99.90
15113;DHT22;7657;50.140;7.076;2023-03-05T14:34:55;5.60;99.90
15113;DHT22;7657;50.140;7.076;2023-03-05T14:37:32;5.60;99.90
15113;DHT22;7657;50.140;7.076;2023-03-05T14:40:01;5.50;99.90
15113;DHT22;7657;50.140;7.076;2023-03-05T14:42:32;5.50;99.90
15113;DHT22;7657;50.140;7.076;2023-03-05T14:45:10;5.30;99.90
15113;DHT22;7657;50.140;7.076;2023-03-05T14:47:37;5.30;99.90
15113;DHT22;7657;50.140;7.076;2023-03-05T14:50:05;5.20;99.90
15113;DHT22;7657;50.140;7.076;2023-03-05T14:52:32;5.30;99.90
15113;DHT22;7657;50.140;7.076;2023-03-05T14:54:59;5.30;99.90
15113;DHT22;7657;50.140;7.076;2023-03-05T14:57:27;5.30;99.90
15113;DHT22;7657;50.140;7.076;2023-03-05T14:59:56;5.30;99.90
15113;DHT22;7657;50.140;7.076;2023-03-05T15:02:26;5.30;99.90
15113;DHT22;7657;50.140;7.076;2023-03-05T15:04:53;5.30;99.90
15113;DHT22;7657;50.140;7.076;2023-03-05T15:07:23;5.20;99.90
15113;DHT22;7657;50.140;7.076;2023-03-05T15:09:51;5.20;99.90
15113;DHT22;7657;50.140;7.076;2023-03-05T15:12:18;5.30;99.90
15113;DHT22;7657;50.140;7.076;2023-03-05T15:14:49;5.20;99.90
15113;DHT22;7657;50.140;7.076;2023-03-05T15:17:19;5.10;99.90
15113;DHT22;7657;50.140;7.076;2023-03-05T15:19:48;5.00;99.90
15113;DHT22;7657;50.140;7.076;2023-03-05T15:22:15;4.90;99.90
15113;DHT22;7657;50.140;7.076;2023-03-05T15:24:43;4.90;99.90
15113;DHT22;7657;50.140;7.076;2023-03-05T15:27:10;4.90;99.90
15113;DHT22;7657;50.140;7.076;2023-03-05T15:29:37;5.00;99.90
15113;DHT22;7657;50.140;7.076;2023-03-05T15:32:04;5.00;99.90
15113;DHT22;7657;50.140;7.076;2023-03-05T15:34:32;4.90;99.90
15113;DHT22;7657;50.140;7.076;2023-03-05T15:37:01;5.00;99.90
15113;DHT22;7657;50.140;7.076;2023-03-05T15:39:28;5.00;99.90
15113;DHT22;7657;50.140;7.076;2023-03-05T15:41:55;5.00;99.90
15113;DHT22;7657;50.140;7.076;2023-03-05T15:44:23;5.00;99.90
15113;DHT22;7657;50.140;7.076;2023-03-05T15:46:50;5.00;99.90
15113;DHT22;7657;50.140;7.076;2023-03-05T15:49:17;5.00;99.90
15113;DHT22;7657;50.140;7.076;2023-03-05T15:51:44;5.00;99.90
15113;DHT22;7657;50.140;7.076;2023-03-05T15:54:12;4.90;99.90
15113;DHT22;7657;50.140;7.076;2023-03-05T15:56:39;4.80;99.90
15113;DHT22;7657;50.140;7.076;2023-03-05T15:59:06;4.70;99.90
15113;DHT22;7657;50.140;7.076;2023-03-05T16:01:35;4.70;99.90
15113;DHT22;7657;50.140;7.076;2023-03-05T16:04:02;4.80;99.90
15113;DHT22;7657;50.140;7.076;2023-03-05T16:06:29;4.80;99.90
15113;DHT22;7657;50.140;7.076;2023-03-05T16:08:58;4.80;99.90
15113;DHT22;7657;50.140;7.076;2023-03-05T16:11:28;4.70;99.90
15113;DHT22;7657;50.140;7.076;2023-03-05T16:13:56;4.80;99.90
15113;DHT22;7657;50.140;7.076;2023-03-05T16:16:26;4.80;99.90
15113;DHT22;7657;50.140;7.076;2023-03-05T16:18:53;4.80;99.90
15113;DHT22;7657;50.140;7.076;2023-03-05T16:21:20;4.90;99.90
15113;DHT22;7657;50.140;7.076;2023-03-05T16:23:47;4.90;99.90